Time;durP1;ratioP1;P1;durP2;ratioP2;P2;SDS_P1;SDS_P2;PMS_P1;PMS_P2;Temp;Humidity;BMP_temperature;BMP_pressure;BME280_temperature;BME280_humidity;BME280_pressure;Samples;Min_cycle;Max_cycle;Signal;HPM_P1;HPM_P2
2024/01/07 00:01:58;;;;;;;;;;;;;;;-144.99;90.54;52721.22;5099188;28;19928;-68
2024/01/07 00:04:25;;;;;;;;;;;;;;;-144.99;90.59;52721.22;5092889;28;20003;-67
2024/01/07 00:06:52;;;;;;;;;;;;;;;-144.99;90.16;52696.78;5101155;28;19956;-66
2024/01/07 00:09:19;;;;;;;;;;;;;;;-144.99;90.21;52709.00;5096253;28;20305;-67
2024/01/07 00:11:45;;;;;;;;;;;;;;;-144.99;90.36;52680.47;5090456;28;19927;-68
2024/01/07 00:14:12;;;;;;;;;;;;;;;-144.99;90.37;52709.00;5092751;28;20354;-67
2024/01/07 00:16:40;;;;;;;;;;;;;;;-144.99;90.17;52688.63;5089620;28;20354;-68
2024/01/07 00:19:07;;;;;;;;;;;;;;;-144.99;90.35;52711.03;5097984;28;19932;-69
2024/01/07 00:21:33;;;;;;;;;;;;;;;-144.99;90.83;52757.94;5087707;28;19924;-69
2024/01/07 00:24:01;;;;;;;;;;;;;;;-144.99;90.84;52694.72;5092116;28;19963;-71
2024/01/07 00:26:28;;;;;;;;;;;;;;;-144.99;90.79;52696.78;5096978;28;20034;-72
2024/01/07 00:28:54;;;;;;;;;;;;;;;-144.99;90.46;52664.16;5087624;28;19955;-71
2024/01/07 00:31:21;;;;;;;;;;;;;;;-144.99;90.48;52692.69;5086136;28;20011;-71
2024/01/07 00:33:47;;;;;;;;;;;;;;;-144.99;90.91;52666.19;5089420;28;19939;-71
2024/01/07 00:36:13;;;;;;;;;;;;;;;-144.99;90.60;52711.03;5100971;28;19963;-70
2024/01/07 00:38:40;;;;;;;;;;;;;;;-144.99;90.69;52643.78;5102805;28;19985;-72
2024/01/07 00:41:08;;;;;;;;;;;;;;;-144.99;91.01;52684.53;5092419;28;19967;-71
2024/01/07 00:43:34;;;;;;;;;;;;;;;-144.99;91.15;52696.78;5094990;28;20366;-72
2024/01/07 00:46:01;;;;;;;;;;;;;;;-144.99;90.83;52700.84;5094859;28;20023;-72
2024/01/07 00:48:27;;;;;;;;;;;;;;;-144.99;90.58;52684.53;5095186;28;20003;-72
2024/01/07 00:50:55;;;;;;;;;;;;;;;-144.99;90.53;52717.16;5086166;28;19923;-72
2024/01/07 00:53:21;;;;;;;;;;;;;;;-144.99;90.48;52717.16;5096705;28;19959;-71
2024/01/07 00:55:47;;;;;;;;;;;;;;;-144.99;90.46;52700.84;5092514;28;19955;-71
2024/01/07 00:58:15;;;;;;;;;;;;;;;-144.99;90.39;52690.66;5090748;28;19928;-69
2024/01/07 01:00:42;;;;;;;;;;;;;;;-144.99;90.44;52709.00;5089825;28;19959;-70
2024/01/07 01:03:08;;;;;;;;;;;;;;;-144.99;90.12;52700.84;5094270;28;19978;-70
2024/01/07 01:05:36;;;;;;;;;;;;;;;-144.99;90.33;52700.84;5111992;28;19931;-71
2024/01/07 01:08:02;;;;;;;;;;;;;;;-144.99;90.73;52678.44;5107851;28;19931;-71
2024/01/07 01:10:29;;;;;;;;;;;;;;;-144.99;90.56;52729.38;5104234;28;20390;-73
2024/01/07 01:12:55;;;;;;;;;;;;;;;-144.99;90.46;52737.53;5102473;28;20302;-73
2024/01/07 01:15:23;;;;;;;;;;;;;;;-144.99;90.78;52729.38;5093893;28;20510;-73
2024/01/07 01:17:49;;;;;;;;;;;;;;;-144.99;91.08;52684.53;5090736;28;19954;-74
2024/01/07 01:20:16;;;;;;;;;;;;;;;-144.99;91.14;52664.16;5087806;28;20510;-74
2024/01/07 01:22:42;;;;;;;;;;;;;;;-144.99;91.59;52729.38;5092240;28;19943;-74
2024/01/07 01:25:10;;;;;;;;;;;;;;;-144.99;91.25;52696.78;5089249;28;20015;-72
2024/01/07 01:27:36;;;;;;;;;;;;;;;-144.99;91.08;52700.84;5099992;28;20337;-71
2024/01/07 01:30:03;;;;;;;;;;;;;;;-144.99;91.53;52680.47;5090958;28;20287;-72
2024/01/07 01:32:31;;;;;;;;;;;;;;;-144.99;92.05;52696.78;5093293;28;20018;-72
2024/01/07 01:37:30;;;;;;;;;;;;;;;-144.99;91.88;52692.69;4678285;28;10000508;-69
2024/01/07 01:39:56;;;;;;;;;;;;;;;-144.99;91.51;52715.13;5024913;28;19929;-70
2024/01/07 01:42:22;;;;;;;;;;;;;;;-144.99;91.47;52680.47;5029511;28;20203;-69
2024/01/07 01:44:49;;;;;;;;;;;;;;;-144.99;91.37;52696.78;5027239;28;20359;-71
2024/01/07 01:47:16;;;;;;;;;;;;;;;-144.99;91.07;52694.72;5027620;28;19925;-71
2024/01/07 01:49:44;;;;;;;;;;;;;;;-144.99;90.93;52741.63;5028362;28;19968;-71
2024/01/07 01:52:11;;;;;;;;;;;;;;;-144.99;90.99;52684.53;5013140;28;19965;-71
2024/01/07 01:54:37;;;;;;;;;;;;;;;-144.99;91.07;52713.09;5028186;28;19929;-71
2024/01/07 01:57:04;;;;;;;;;;;;;;;-144.99;90.46;52737.53;5031861;28;19928;-71
2024/01/07 01:59:32;;;;;;;;;;;;;;;-144.99;90.62;52713.09;5030087;28;19929;-70
2024/01/07 02:01:58;;;;;;;;;;;;;;;-144.99;90.70;52715.13;5027944;28;20416;-66
2024/01/07 02:04:25;;;;;;;;;;;;;;;-144.99;90.83;52727.34;5028877;28;20024;-66
2024/01/07 02:06:52;;;;;;;;;;;;;;;-144.99;90.39;52702.88;5026291;28;19929;-67
2024/01/07 02:09:19;;;;;;;;;;;;;;;-144.99;90.28;52700.84;5028567;28;20172;-67
2024/01/07 02:12:00;;;;;;;;;;;;;;;-144.99;90.58;52709.00;5027490;28;20403;-70
2024/01/07 02:14:27;;;;;;;;;;;;;;;-144.99;90.16;52684.53;5026564;28;19925;-70
2024/01/07 02:16:53;;;;;;;;;;;;;;;-144.99;90.23;52696.78;5029260;28;19976;-71
2024/01/07 02:19:21;;;;;;;;;;;;;;;-144.99;90.25;52684.53;5029838;28;19925;-71
2024/01/07 02:21:47;;;;;;;;;;;;;;;-144.99;90.00;52700.84;5030868;28;20413;-70
2024/01/07 02:24:17;;;;;;;;;;;;;;;-144.99;90.27;52696.78;5039311;28;20343;-70
2024/01/07 02:26:43;;;;;;;;;;;;;;;-144.99;90.30;52709.00;5033350;28;20411;-70
2024/01/07 02:29:10;;;;;;;;;;;;;;;-144.99;90.23;52725.31;5031673;28;20018;-65
2024/01/07 02:31:37;;;;;;;;;;;;;;;-144.99;89.71;52684.53;5031630;28;20027;-65
2024/01/07 02:34:03;;;;;;;;;;;;;;;-144.99;89.77;52711.03;5031328;28;20003;-65
2024/01/07 02:36:29;;;;;;;;;;;;;;;-144.99;89.78;52706.97;5042974;28;19933;-66
2024/01/07 02:38:56;;;;;;;;;;;;;;;-144.99;90.17;52711.03;5051912;28;19952;-66
2024/01/07 02:41:25;;;;;;;;;;;;;;;-144.99;90.32;52692.69;5048447;28;19979;-66
2024/01/07 02:43:51;;;;;;;;;;;;;;;-144.99;89.44;52698.81;5042832;28;20086;-65
2024/01/07 02:46:18;;;;;;;;;;;;;;;-144.99;90.28;52631.53;5048701;28;19925;-65
2024/01/07 02:48:44;;;;;;;;;;;;;;;-144.99;89.64;52678.44;5042329;28;19940;-66
2024/01/07 02:51:11;;;;;;;;;;;;;;;-144.99;90.51;52713.09;5032231;28;19979;-65
2024/01/07 02:53:37;;;;;;;;;;;;;;;-144.99;90.95;52656.00;5031015;28;20016;-65
2024/01/07 02:56:04;;;;;;;;;;;;;;;-144.99;89.63;52676.38;5028297;28;19933;-65
2024/01/07 02:58:32;;;;;;;;;;;;;;;-144.99;89.79;52702.88;5046100;28;19929;-65
2024/01/07 03:00:59;;;;;;;;;;;;;;;-144.99;90.23;52686.59;5031822;28;20028;-65
2024/01/07 03:03:25;;;;;;;;;;;;;;;-144.99;89.22;52688.63;5034308;28;19964;-68
2024/01/07 03:05:52;;;;;;;;;;;;;;;-144.99;89.09;52688.63;5031035;28;19925;-66
2024/01/07 03:08:18;;;;;;;;;;;;;;;-144.99;88.98;52688.63;5031086;28;19929;-66
2024/01/07 03:10:45;;;;;;;;;;;;;;;-144.99;89.65;52688.63;5031533;28;19933;-66
2024/01/07 03:13:12;;;;;;;;;;;;;;;-144.99;88.86;52700.84;5031586;28;19968;-71
2024/01/07 03:15:40;;;;;;;;;;;;;;;-144.99;88.76;52664.16;5030884;28;20028;-71
2024/01/07 03:18:06;;;;;;;;;;;;;;;-144.99;89.20;52676.38;5029624;28;20350;-70
2024/01/07 03:20:33;;;;;;;;;;;;;;;-144.99;89.78;52643.78;5030759;28;20142;-71
2024/01/07 03:23:00;;;;;;;;;;;;;;;-144.99;90.00;52700.84;5034913;28;20015;-71
2024/01/07 03:25:27;;;;;;;;;;;;;;;-144.99;89.71;52656.00;5032691;28;19999;-71
2024/01/07 03:27:53;;;;;;;;;;;;;;;-144.99;89.44;52688.63;5029886;28;19972;-71
2024/01/07 03:30:20;;;;;;;;;;;;;;;-144.99;89.45;52680.47;5028468;28;19926;-71
2024/01/07 03:32:48;;;;;;;;;;;;;;;-144.99;89.00;52688.63;5031159;28;20436;-70
2024/01/07 03:35:15;;;;;;;;;;;;;;;-144.99;90.74;52684.53;5030788;28;20475;-69
2024/01/07 03:37:42;;;;;;;;;;;;;;;-144.99;90.04;52670.28;5030921;28;19972;-71
2024/01/07 03:40:10;;;;;;;;;;;;;;;-144.99;89.44;52678.44;5025337;28;19964;-71
2024/01/07 03:42:37;;;;;;;;;;;;;;;-144.99;89.81;52688.63;5030546;28;19975;-70
2024/01/07 03:45:04;;;;;;;;;;;;;;;-144.99;89.31;52696.78;5030602;28;19925;-70
2024/01/07 03:47:31;;;;;;;;;;;;;;;-144.99;89.50;52709.00;5030871;28;19925;-70
2024/01/07 03:49:59;;;;;;;;;;;;;;;-144.99;89.73;52684.53;5028792;28;20020;-71
2024/01/07 03:52:25;;;;;;;;;;;;;;;-144.99;89.95;52696.78;5030858;28;19935;-74
2024/01/07 03:54:52;;;;;;;;;;;;;;;-144.99;89.50;52680.47;5030975;28;20342;-71
2024/01/07 03:57:19;;;;;;;;;;;;;;;-144.99;89.20;52680.47;5030697;28;20353;-68
2024/01/07 03:59:45;;;;;;;;;;;;;;;-144.99;89.20;52713.09;5029659;28;19988;-69
2024/01/07 04:02:16;;;;;;;;;;;;;;;-144.99;89.07;52688.63;5028745;28;19925;-72
2024/01/07 04:04:42;;;;;;;;;;;;;;;-144.99;89.37;52674.34;5031020;28;19929;-72
2024/01/07 04:07:10;;;;;;;;;;;;;;;-144.99;89.23;52717.16;5039482;28;19948;-72
2024/01/07 04:09:37;;;;;;;;;;;;;;;-144.99;88.76;52709.00;5047715;28;20186;-71
2024/01/07 04:12:03;;;;;;;;;;;;;;;-144.99;89.10;52717.16;5033373;28;19933;-72
2024/01/07 04:14:33;;;;;;;;;;;;;;;-144.99;89.65;52709.00;5033034;28;19956;-71
2024/01/07 04:16:59;;;;;;;;;;;;;;;-144.99;89.42;52700.84;5030825;28;20020;-72
2024/01/07 04:19:26;;;;;;;;;;;;;;;-144.99;89.09;52709.00;5030647;28;19925;-71
2024/01/07 04:21:52;;;;;;;;;;;;;;;-144.99;88.97;52672.31;5029357;28;19925;-71
2024/01/07 04:24:20;;;;;;;;;;;;;;;-144.99;88.95;52668.22;5029774;28;20001;-72
2024/01/07 04:26:47;;;;;;;;;;;;;;;-144.99;89.44;52692.69;5029959;28;19986;-71
2024/01/07 04:29:13;;;;;;;;;;;;;;;-144.99;89.09;52688.63;5028300;28;19972;-71
2024/01/07 04:31:40;;;;;;;;;;;;;;;-144.99;89.72;52668.22;5029614;28;19972;-71
2024/01/07 04:34:06;;;;;;;;;;;;;;;-144.99;89.90;52682.50;5029482;28;19932;-72
2024/01/07 04:36:33;;;;;;;;;;;;;;;-144.99;90.03;52688.63;5030078;28;20006;-71
2024/01/07 04:38:59;;;;;;;;;;;;;;;-144.99;89.60;52680.47;5030337;28;20265;-71
2024/01/07 04:41:27;;;;;;;;;;;;;;;-144.99;89.57;52664.16;5032419;28;20197;-72
2024/01/07 04:43:54;;;;;;;;;;;;;;;-144.99;89.71;52684.53;5030246;28;19979;-74
2024/01/07 04:46:20;;;;;;;;;;;;;;;-144.99;89.88;52656.00;5029030;28;20020;-72
2024/01/07 04:48:47;;;;;;;;;;;;;;;-144.99;90.29;52684.53;5030203;28;19936;-70
2024/01/07 04:51:13;;;;;;;;;;;;;;;-144.99;90.76;52737.53;5029755;28;19940;-71
2024/01/07 04:53:40;;;;;;;;;;;;;;;-144.99;90.54;52672.31;5028918;28;19975;-70
2024/01/07 04:56:07;;;;;;;;;;;;;;;-144.99;90.67;52721.22;5029399;28;19979;-70
2024/01/07 04:58:34;;;;;;;;;;;;;;;-144.99;90.48;52668.22;5035728;28;19948;-70
2024/01/07 05:01:01;;;;;;;;;;;;;;;-144.99;90.86;52696.78;5029718;28;19925;-69
2024/01/07 05:03:28;;;;;;;;;;;;;;;-144.99;91.16;52704.94;5030542;28;19926;-71
2024/01/07 05:05:56;;;;;;;;;;;;;;;-144.99;91.23;52692.69;5026909;28;20214;-69
2024/01/07 05:08:23;;;;;;;;;;;;;;;-144.99;91.30;52690.66;5031116;28;19933;-69
2024/01/07 05:10:49;;;;;;;;;;;;;;;-144.99;91.45;52715.13;5029159;28;19983;-65
2024/01/07 05:13:15;;;;;;;;;;;;;;;-144.99;91.47;52704.94;5029424;28;20443;-65
2024/01/07 05:15:43;;;;;;;;;;;;;;;-144.99;91.53;52709.00;5027929;28;20372;-65
2024/01/07 05:18:10;;;;;;;;;;;;;;;-144.99;91.64;52700.84;5028935;28;19929;-66
2024/01/07 05:20:36;;;;;;;;;;;;;;;-144.99;91.64;52688.63;5028721;28;20024;-66
2024/01/07 05:23:03;;;;;;;;;;;;;;;-144.99;91.74;52692.69;5028579;28;19960;-66
2024/01/07 05:25:30;;;;;;;;;;;;;;;-144.99;91.93;52680.47;5027880;28;19929;-67
2024/01/07 05:27:56;;;;;;;;;;;;;;;-144.99;91.96;52676.38;5027741;28;20306;-66
2024/01/07 05:30:23;;;;;;;;;;;;;;;-144.99;91.91;52668.22;5028740;28;20264;-66
2024/01/07 05:32:51;;;;;;;;;;;;;;;-144.99;92.17;52692.69;5028706;28;19925;-67
2024/01/07 05:35:16;;;;;;;;;;;;;;;-144.99;92.29;52688.63;5028809;28;19929;-71
2024/01/07 05:37:43;;;;;;;;;;;;;;;-144.99;92.56;52680.47;5027340;28;19968;-69
2024/01/07 05:40:10;;;;;;;;;;;;;;;-144.99;92.67;52713.09;5029347;28;20346;-75
2024/01/07 05:42:36;;;;;;;;;;;;;;;-144.99;93.10;52706.97;5029289;28;19929;-75
2024/01/07 05:45:03;;;;;;;;;;;;;;;-144.99;92.78;52702.88;5030821;28;19985;-76
2024/01/07 05:47:30;;;;;;;;;;;;;;;-144.99;92.92;52700.84;5039620;28;20000;-74
2024/01/07 05:49:58;;;;;;;;;;;;;;;-144.99;93.03;52692.69;5050028;28;19925;-74
2024/01/07 05:52:24;;;;;;;;;;;;;;;-144.99;93.05;52680.47;5049313;28;19925;-74
2024/01/07 05:54:51;;;;;;;;;;;;;;;-144.99;93.19;52688.63;5049398;28;19914;-74
2024/01/07 05:57:17;;;;;;;;;;;;;;;-144.99;93.13;52700.84;5048780;28;19948;-66
2024/01/07 05:59:44;;;;;;;;;;;;;;;-144.99;93.29;52692.69;5030381;28;19957;-66
2024/01/07 06:02:11;;;;;;;;;;;;;;;-144.99;93.37;52713.09;5032631;28;19952;-67
2024/01/07 06:04:38;;;;;;;;;;;;;;;-144.99;93.43;52709.00;5032321;28;19925;-70
2024/01/07 06:07:05;;;;;;;;;;;;;;;-144.99;93.50;52733.47;5032594;28;19949;-69
2024/01/07 06:09:32;;;;;;;;;;;;;;;-144.99;94.11;52662.13;5038777;28;20430;-66
2024/01/07 06:11:59;;;;;;;;;;;;;;;-144.99;93.94;52700.84;5044611;28;20498;-66
2024/01/07 06:14:25;;;;;;;;;;;;;;;-144.99;93.94;52737.53;5039909;28;19979;-67
2024/01/07 06:16:52;;;;;;;;;;;;;;;-144.99;94.17;52713.09;5032625;28;19925;-69
2024/01/07 06:19:18;;;;;;;;;;;;;;;-144.99;94.72;52672.31;5036247;28;19979;-69
2024/01/07 06:21:45;;;;;;;;;;;;;;;-144.99;94.76;52676.38;5030635;28;19968;-69
2024/01/07 06:24:13;;;;;;;;;;;;;;;-144.99;95.67;52676.38;5031832;28;19925;-67
2024/01/07 06:26:40;;;;;;;;;;;;;;;-144.99;95.56;52721.22;5031766;28;19988;-67
2024/01/07 06:29:06;;;;;;;;;;;;;;;-144.99;95.62;52690.66;5032405;28;19929;-67
2024/01/07 06:31:33;;;;;;;;;;;;;;;-144.99;96.12;52700.84;5030552;28;19929;-67
2024/01/07 06:34:00;;;;;;;;;;;;;;;-144.99;96.13;52696.78;5031842;28;19975;-67
2024/01/07 06:36:27;;;;;;;;;;;;;;;-144.99;96.12;52664.16;5032522;28;19925;-66
2024/01/07 06:38:53;;;;;;;;;;;;;;;-144.99;96.20;52670.28;5032232;28;20166;-64
2024/01/07 06:41:21;;;;;;;;;;;;;;;-144.99;96.54;52709.00;5029553;28;19991;-65
2024/01/07 06:43:49;;;;;;;;;;;;;;;-144.99;96.59;52692.69;5031102;28;20620;-65
2024/01/07 06:46:16;;;;;;;;;;;;;;;-144.99;96.53;52727.34;5031904;28;19963;-65
2024/01/07 06:48:42;;;;;;;;;;;;;;;-144.99;96.85;52711.03;5031820;28;20042;-66
2024/01/07 06:51:09;;;;;;;;;;;;;;;-144.99;96.77;52688.63;5031544;28;20020;-66
2024/01/07 06:53:35;;;;;;;;;;;;;;;-144.99;97.01;52676.38;5028251;28;20373;-65
2024/01/07 06:56:02;;;;;;;;;;;;;;;-144.99;97.26;52700.84;5030565;28;19929;-66
2024/01/07 06:58:32;;;;;;;;;;;;;;;-144.99;97.41;52660.09;5031308;28;20379;-66
2024/01/07 07:00:58;;;;;;;;;;;;;;;-144.99;97.85;52688.63;5031929;28;19929;-66
2024/01/07 07:03:25;;;;;;;;;;;;;;;-144.99;97.90;52733.47;5031197;28;19979;-66
2024/01/07 07:05:52;;;;;;;;;;;;;;;-144.99;98.32;52713.09;5027129;28;20091;-65
2024/01/07 07:08:18;;;;;;;;;;;;;;;-144.99;98.79;52711.03;5031962;28;19930;-66
2024/01/07 07:10:45;;;;;;;;;;;;;;;-144.99;98.96;52692.69;5031496;28;20307;-66
2024/01/07 07:13:11;;;;;;;;;;;;;;;-144.99;99.86;52696.78;5026897;28;19968;-65
2024/01/07 07:15:39;;;;;;;;;;;;;;;-144.99;100.00;52680.47;5029808;28;19926;-65
2024/01/07 07:18:06;;;;;;;;;;;;;;;-144.99;100.00;52700.84;5032993;28;19925;-65
2024/01/07 07:20:32;;;;;;;;;;;;;;;-144.99;100.00;52692.69;5032620;28;19960;-64
2024/01/07 07:22:59;;;;;;;;;;;;;;;-144.99;100.00;52700.84;5032495;28;20367;-67
2024/01/07 07:25:25;;;;;;;;;;;;;;;-144.99;100.00;52696.78;5030070;28;19933;-65
2024/01/07 07:27:52;;;;;;;;;;;;;;;-144.99;100.00;52729.38;5030945;28;20019;-64
2024/01/07 07:30:19;;;;;;;;;;;;;;;-144.99;100.00;52733.47;5031555;28;19968;-64
2024/01/07 07:32:47;;;;;;;;;;;;;;;-144.99;100.00;52692.69;5031739;28;20330;-64
2024/01/07 07:35:13;;;;;;;;;;;;;;;-144.99;100.00;52700.84;5030774;28;19983;-64
2024/01/07 07:37:39;;;;;;;;;;;;;;;-144.99;100.00;52721.22;5031120;28;20466;-63
2024/01/07 07:40:06;;;;;;;;;;;;;;;-144.99;100.00;52721.22;5030772;28;20443;-64
2024/01/07 07:42:33;;;;;;;;;;;;;;;-144.99;100.00;52700.84;5062619;22;19928;-71
2024/01/07 07:45:00;;;;;;;;;;;;;;;-144.99;100.00;52692.69;5098430;28;20460;-66
2024/01/07 07:47:26;;;;;;;;;;;;;;;-144.99;100.00;52709.00;5087899;28;19923;-66
2024/01/07 07:49:54;;;;;;;;;;;;;;;-144.99;100.00;52692.69;5096539;28;19978;-65
2024/01/07 07:52:23;;;;;;;;;;;;;;;-144.99;100.00;52717.16;5089158;28;19924;-65
2024/01/07 07:54:50;;;;;;;;;;;;;;;-144.99;100.00;52711.03;5096222;28;19965;-65
2024/01/07 07:57:16;;;;;;;;;;;;;;;-144.99;100.00;52678.44;5086567;28;20410;-66
2024/01/07 07:59:43;;;;;;;;;;;;;;;-144.99;100.00;52709.00;5091283;28;20222;-65
2024/01/07 08:02:09;;;;;;;;;;;;;;;-144.99;100.00;52717.16;5095698;28;20023;-66
2024/01/07 08:04:35;;;;;;;;;;;;;;;-144.99;100.00;52688.63;5092427;28;20408;-66
2024/01/07 08:07:03;;;;;;;;;;;;;;;-144.99;100.00;52713.09;5092092;28;19938;-65
2024/01/07 08:09:30;;;;;;;;;;;;;;;-144.99;100.00;52733.47;5090720;28;19928;-65
2024/01/07 08:11:56;;;;;;;;;;;;;;;-144.99;100.00;52684.53;5091174;28;20004;-66
2024/01/07 08:14:23;;;;;;;;;;;;;;;-144.99;100.00;52700.84;5115468;28;20155;-65
2024/01/07 08:16:49;;;;;;;;;;;;;;;-144.99;100.00;52682.50;5097270;28;19924;-65
2024/01/07 08:19:16;;;;;;;;;;;;;;;-144.99;100.00;52704.94;5087903;28;20078;-64
2024/01/07 08:21:42;;;;;;;;;;;;;;;-144.99;100.00;52721.22;5091848;28;19969;-66
2024/01/07 08:24:11;;;;;;;;;;;;;;;-144.99;100.00;52741.63;5095903;28;19932;-67
2024/01/07 08:26:37;;;;;;;;;;;;;;;-144.99;99.78;52711.03;5088400;28;19954;-66
2024/01/07 08:29:04;;;;;;;;;;;;;;;-144.99;99.81;52688.63;5085434;28;20497;-66
2024/01/07 08:31:30;;;;;;;;;;;;;;;-144.99;99.69;52717.16;5091319;28;19982;-69
2024/01/07 08:33:57;;;;;;;;;;;;;;;-144.99;99.51;52684.53;5093910;28;20017;-70
2024/01/07 08:36:23;;;;;;;;;;;;;;;-144.99;99.88;52721.22;5091930;28;19978;-70
2024/01/07 08:38:50;;;;;;;;;;;;;;;-144.99;100.00;52709.00;5095425;28;19967;-69
2024/01/07 08:41:18;;;;;;;;;;;;;;;-144.99;100.00;52704.94;5087983;28;20076;-69
2024/01/07 08:43:45;;;;;;;;;;;;;;;-144.99;100.00;52684.53;5095510;28;19992;-67
2024/01/07 08:46:13;;;;;;;;;;;;;;;-144.99;100.00;52680.47;5092834;28;19934;-67
2024/01/07 08:48:40;;;;;;;;;;;;;;;-144.99;100.00;52668.22;5095084;28;19924;-68
2024/01/07 08:51:06;;;;;;;;;;;;;;;-144.99;100.00;52688.63;5089112;28;19924;-66
2024/01/07 08:53:33;;;;;;;;;;;;;;;-144.99;99.47;52664.16;5096641;28;19927;-67
2024/01/07 08:55:59;;;;;;;;;;;;;;;-144.99;100.00;52680.47;5092801;28;19959;-68
2024/01/07 08:58:27;;;;;;;;;;;;;;;-144.99;99.68;52639.69;5093883;28;19924;-68
2024/01/07 09:00:54;;;;;;;;;;;;;;;-144.99;99.53;52651.94;5089294;28;20065;-68
2024/01/07 09:03:19;;;;;;;;;;;;;;;-144.99;97.87;52651.94;5088203;28;20007;-69
2024/01/07 09:05:46;;;;;;;;;;;;;;;-144.99;97.51;52635.63;5097922;28;20014;-69
2024/01/07 09:08:14;;;;;;;;;;;;;;;-144.99;95.28;52603.00;5096072;28;19939;-71
2024/01/07 09:10:41;;;;;;;;;;;;;;;-144.99;92.25;52643.78;5094529;28;19947;-69
2024/01/07 09:13:07;;;;;;;;;;;;;;;-144.99;92.45;52643.78;5087735;28;19928;-69
2024/01/07 09:15:35;;;;;;;;;;;;;;;-144.99;91.37;52668.22;5089679;28;20156;-69
2024/01/07 09:18:01;;;;;;;;;;;;;;;-144.99;90.11;52656.00;5090083;28;19964;-69
2024/01/07 09:20:28;;;;;;;;;;;;;;;-144.99;87.58;52668.22;5099662;28;19951;-69
2024/01/07 09:22:54;;;;;;;;;;;;;;;-144.99;87.28;52629.50;5094321;28;20031;-68
2024/01/07 09:25:21;;;;;;;;;;;;;;;-144.99;86.76;52619.31;5091216;28;19974;-68
2024/01/07 09:27:47;;;;;;;;;;;;;;;-144.99;85.12;52623.38;5095876;28;20582;-68
2024/01/07 09:30:15;;;;;;;;;;;;;;;-144.99;83.58;52653.97;5093675;28;19928;-68
2024/01/07 09:32:43;;;;;;;;;;;;;;;-144.99;82.64;52664.16;5095503;28;19989;-69
2024/01/07 09:35:09;;;;;;;;;;;;;;;-144.99;81.33;52631.53;5101415;28;20347;-69
2024/01/07 09:37:36;;;;;;;;;;;;;;;-144.99;80.20;52627.47;5100743;28;20395;-69
2024/01/07 09:40:05;;;;;;;;;;;;;;;-144.99;78.65;52651.94;5104436;28;19924;-68
2024/01/07 09:42:31;;;;;;;;;;;;;;;-144.99;77.66;52627.47;5098647;28;19924;-68
2024/01/07 09:45:00;;;;;;;;;;;;;;;-144.99;76.83;52611.16;5098102;28;19932;-68
2024/01/07 09:47:26;;;;;;;;;;;;;;;-144.99;75.66;52617.28;5090144;28;19943;-68
2024/01/07 09:49:54;;;;;;;;;;;;;;;-144.99;75.35;52598.94;5098948;28;19927;-72
2024/01/07 09:52:21;;;;;;;;;;;;;;;-144.99;75.40;52619.31;5093766;28;19928;-70
2024/01/07 09:54:50;;;;;;;;;;;;;;;-144.99;74.69;52627.47;5103214;28;19978;-71
2024/01/07 09:57:17;;;;;;;;;;;;;;;-144.99;74.05;52603.00;5087569;28;20013;-71
2024/01/07 09:59:43;;;;;;;;;;;;;;;-144.99;73.20;52603.00;5095942;28;19943;-70
2024/01/07 10:02:10;;;;;;;;;;;;;;;-144.99;72.95;52607.09;5100089;28;20011;-70
2024/01/07 10:04:37;;;;;;;;;;;;;;;-144.99;72.63;52598.94;5097213;28;19928;-70
2024/01/07 10:07:05;;;;;;;;;;;;;;;-144.99;72.25;52603.00;5095266;28;19925;-70
2024/01/07 10:09:34;;;;;;;;;;;;;;;-144.99;71.52;52570.38;5086526;28;19925;-72
2024/01/07 10:12:02;;;;;;;;;;;;;;;-144.99;70.51;52615.25;5093083;28;20018;-71
2024/01/07 10:14:28;;;;;;;;;;;;;;;-144.99;68.18;52598.94;5102693;28;19935;-70
2024/01/07 10:16:55;;;;;;;;;;;;;;;-144.99;68.19;52582.63;5095926;28;20045;-73
2024/01/07 10:19:22;;;;;;;;;;;;;;;-144.99;68.14;52529.63;5093237;28;19927;-75
2024/01/07 10:21:59;;;;;;;;;;;;;;;-144.99;66.77;52527.59;5096602;28;19928;-75
2024/01/07 10:24:27;;;;;;;;;;;;;;;-144.99;65.59;52531.66;5095790;28;19971;-75
2024/01/07 10:26:53;;;;;;;;;;;;;;;-144.99;65.00;52492.94;5097726;28;20361;-75
2024/01/07 10:29:20;;;;;;;;;;;;;;;-144.99;65.23;52476.63;5086816;28;20012;-75
2024/01/07 10:31:47;;;;;;;;;;;;;;;-144.99;63.04;52525.56;5091924;28;20217;-76
2024/01/07 10:34:14;;;;;;;;;;;;;;;-144.99;62.62;52490.91;5104073;28;19924;-75
2024/01/07 10:36:42;;;;;;;;;;;;;;;-144.99;61.69;52492.94;5095188;28;20030;-76
2024/01/07 10:39:09;;;;;;;;;;;;;;;-144.99;62.18;52472.56;5091112;28;20011;-76
2024/01/07 10:41:38;;;;;;;;;;;;;;;-144.99;61.69;52439.94;5094904;28;19934;-77
2024/01/07 10:44:05;;;;;;;;;;;;;;;-144.99;60.73;52452.16;5089573;28;19959;-76
2024/01/07 10:46:32;;;;;;;;;;;;;;;-144.99;60.06;52470.50;5091507;28;20019;-77
2024/01/07 10:49:00;;;;;;;;;;;;;;;-144.99;59.17;52446.06;5097711;28;19959;-77
2024/01/07 10:51:30;;;;;;;;;;;;;;;-144.99;58.86;52382.88;5089076;28;19924;-77
2024/01/07 10:53:57;;;;;;;;;;;;;;;-144.99;58.00;52427.72;5098677;28;19936;-74
2024/01/07 10:56:24;;;;;;;;;;;;;;;-144.99;58.48;52452.16;5098462;28;19960;-75
2024/01/07 10:58:52;;;;;;;;;;;;;;;-144.99;58.53;52427.72;5090633;27;20001;-75
2024/01/07 11:01:19;;;;;;;;;;;;;;;-144.99;58.41;52338.03;5096361;28;20021;-75
2024/01/07 11:03:58;;;;;;;;;;;;;;;-144.99;57.93;52374.72;5088832;28;19959;-75
2024/01/07 11:06:28;;;;;;;;;;;;;;;-144.99;57.53;52340.06;5097376;28;19931;-74
2024/01/07 11:08:57;;;;;;;;;;;;;;;-144.99;57.37;52388.97;5094869;28;20384;-74
2024/01/07 11:11:26;;;;;;;;;;;;;;;-144.99;58.94;52366.56;5095205;28;20009;-75
2024/01/07 11:13:54;;;;;;;;;;;;;;;-144.99;58.14;52382.88;5087609;28;19976;-75
2024/01/07 11:16:43;;;;;;;;;;;;;;;-144.99;57.06;52346.19;5091163;28;20332;-73
2024/01/07 11:19:09;;;;;;;;;;;;;;;-144.99;57.22;52333.94;5086988;28;19924;-74
2024/01/07 11:21:36;;;;;;;;;;;;;;;-144.99;56.82;52358.41;5094515;28;19947;-73
2024/01/07 11:24:04;;;;;;;;;;;;;;;-144.99;56.72;52362.50;5099833;28;19924;-73
2024/01/07 11:26:30;;;;;;;;;;;;;;;-144.99;56.11;52329.88;5095814;28;20274;-73
2024/01/07 11:28:58;;;;;;;;;;;;;;;-144.99;55.13;52333.94;5088157;28;19959;-73
2024/01/07 11:31:39;;;;;;;;;;;;;;;-144.99;55.60;52323.75;5093190;28;19975;-74
2024/01/07 11:34:06;;;;;;;;;;;;;;;-144.99;55.92;52327.84;5089046;28;19959;-74
2024/01/07 11:36:36;;;;;;;;;;;;;;;-144.99;55.53;52331.91;5100383;28;20027;-73
2024/01/07 11:39:03;;;;;;;;;;;;;;;-144.99;55.82;52350.25;5094494;28;19959;-74
2024/01/07 11:41:32;;;;;;;;;;;;;;;-144.99;55.57;52350.25;5094767;28;19923;-74
2024/01/07 11:44:01;;;;;;;;;;;;;;;-144.99;55.06;52338.03;5097102;28;19955;-74
2024/01/07 11:46:27;;;;;;;;;;;;;;;-144.99;54.94;52338.03;5091592;28;19928;-76
2024/01/07 11:48:57;;;;;;;;;;;;;;;-144.99;55.20;52340.06;5096300;28;19988;-74
2024/01/07 11:51:24;;;;;;;;;;;;;;;-144.99;55.19;52319.69;5089095;28;19940;-75
2024/01/07 11:53:51;;;;;;;;;;;;;;;-144.99;55.36;52338.03;5083783;28;20019;-75
2024/01/07 11:56:17;;;;;;;;;;;;;;;-144.99;55.40;52362.50;5089407;28;19928;-76
2024/01/07 11:58:44;;;;;;;;;;;;;;;-144.99;55.35;52336.00;5092889;28;20285;-76
2024/01/07 12:01:12;;;;;;;;;;;;;;;-144.99;54.72;52301.34;5101656;28;19973;-75
2024/01/07 12:03:38;;;;;;;;;;;;;;;-144.99;54.80;52352.28;5099389;28;20512;-75
2024/01/07 12:06:05;;;;;;;;;;;;;;;-144.99;54.55;52285.03;5106098;28;20369;-75
2024/01/07 12:08:32;;;;;;;;;;;;;;;-144.99;54.98;52317.66;5092863;28;19924;-73
2024/01/07 12:11:00;;;;;;;;;;;;;;;-144.99;55.04;52317.66;5105283;28;19924;-74
2024/01/07 12:13:27;;;;;;;;;;;;;;;-144.99;55.12;52344.16;5108299;28;20016;-76
2024/01/07 12:15:54;;;;;;;;;;;;;;;-144.99;55.01;52327.84;5109594;28;19931;-76
2024/01/07 12:18:24;;;;;;;;;;;;;;;-144.99;54.68;52272.81;5109436;28;19931;-76
2024/01/07 12:20:57;;;;;;;;;;;;;;;-144.99;53.94;52309.50;5111041;28;19924;-76
2024/01/07 12:23:24;;;;;;;;;;;;;;;-144.99;53.94;52331.91;5114434;28;19935;-75
2024/01/07 12:25:51;;;;;;;;;;;;;;;-144.99;53.83;52325.81;5106402;28;19990;-77
2024/01/07 12:28:18;;;;;;;;;;;;;;;-144.99;53.99;52315.59;5096143;28;19925;-75